Record high temperature 100.4°F Record low temperature 10.6°F Record high gust 40 mph Record high average 22.8 mph Record daily rain 11.65 in. Record low windchill 2.7°F Record high barometer 30.773 in. Record low barometer 29.184 in.
Daily high pressure 29.801 in. Daily low pressure 29.695 in. Daily low windchill 54.2°F Daily high heat index 73.8°F Daily high gust speed 11.0 mph W Daily high average speed 5.9 mph W
Forecast: mostly cloudy and cooler. precipitation possible within 12 hours, possibly heavy at times. windy.
On the Greenway Weather Data - Tigard OR
LAST READING AT TIME: 9:21 PM DATE: October 19 2014, time of next update: 9:22 pm
Current WeatherNight time/Dry Current Temperature 60.1°F (15.6°C), Apparent temp 62.0°F
Maximum Temperature (since midnight)73.8°F at: 4:48 PM Minimum Temperature (since midnight)54.2°F at: 3:07 AM
Average windspeed (ten minute)0.0 mph Wind Direction (ten minute)S (180°)
Windchill Temperature 60.1°F Maximum Gust (last hour) 0 mph at: 9:00 PM
Maximum Gust (since midnight)11 mph at: 2:23 PM Maximum 1 minute average (since midnight)5.9 mph at: 2:08 PM
Rainfall (last hour)0.00 in. (0.0 mm) Rainfall (since midnight)0.00 in. (0.0 mm) ---
Rainfall This month 1.44 in. (36.6 mm) Rainfall To date this year 1.44 in. (36.6 mm)
Maximum rain per minute (last hour)0.00 in/min Maximum rain per hour (last 6 hours)0.00 in/hour
Yesterdays rainfall 0.02 in DewPoint 56.5°F (Wet Bulb :58.1°F )
Humidity 88 %, Humidex 65.8°F Barometer corrected to msl29.706 in. (1006.0 hPa)
Pressure change +0.01 in. (last hour) Trend (last hour)STEADY
Pressure change (last 12 hours)-0.09 in Pressure change (last 6 hours)-0.03 in

This page is updated from recent data collected by a DAVIS VANTAGE PRO weather station Use the Reload or Refresh facility on your browser to retrieve the latest data.


Click here for the last 24 hour graph
Click here for the last 48 hour graph
Click here for the last 72 hour graph
Click here for the month to date graph


Weather report/Warning/Metars

PORTLAND-HILLSBORO AIRPORT, OR, United States (KHIO) 45-33N 122-57W 68M
Oct 19, 2014 - 10:53 PM EDT / 2014.10.20 0253 UTC
Wind: from the NNW (330 degrees) at 5 MPH (4 KT):0
Visibility: 10 mile(s):0
Sky conditions: clear
Temperature: 60.1 F (15.6 C)
Dew Point: 57.0 F (13.9 C)
Relative Humidity: 89%
Pressure (altimeter): 29.71 in. Hg (1006 hPa)
Pressure tendency: 0.01 inches (0.3 hPa) lower than three hours ago
ob: KHIO 200253Z 33004KT 10SM CLR 16/14 A2971 RMK AO2 SLP058 T01560139 55003
cycle: 3
PORTLAND INTERNATIONAL  AIRPORT, OR, United States (KPDX) 45-35N 122-36W 7M
Oct 19, 2014 - 10:53 PM EDT / 2014.10.20 0253 UTC
Wind: from the E (100 degrees) at 6 MPH (5 KT):0
Visibility: 10 mile(s):0
Sky conditions: mostly clear
Temperature: 63.0 F (17.2 C)
Dew Point: 57.9 F (14.4 C)
Relative Humidity: 83%
Pressure (altimeter): 29.7 in. Hg (1005 hPa)
Pressure tendency: 0.02 inches (0.7 hPa) lower than three hours ago
ob: KPDX 200253Z 10005KT 10SM FEW120 FEW230 17/14 A2970 RMK AO2 SLP057 T01720144 56007
cycle: 3
PORTLAND-TROUTDALE AIRPORT, OR, United States (KTTD) 45-33N 122-25W 14M
Oct 19, 2014 - 10:53 PM EDT / 2014.10.20 0253 UTC
Wind: from the ESE (120 degrees) at 3 MPH (3 KT):0
Visibility: 10 mile(s):0
Sky conditions: mostly clear
Temperature: 63.0 F (17.2 C)
Dew Point: 55.9 F (13.3 C)
Relative Humidity: 77%
Pressure (altimeter): 29.69 in. Hg (1005 hPa)
Pressure tendency: 0.02 inches (0.7 hPa) lower than three hours ago
ob: KTTD 200253Z 12003KT 10SM FEW120 17/13 A2969 RMK AO2 SLP055 T01720133 56007
cycle: 3
MCMINNVILLE MUNICIPAL AIRPORT , OR, United States (KMMV) 45-12N 123-08W 48M
Oct 19, 2014 - 10:53 PM EDT / 2014.10.20 0253 UTC
Wind: from the WSW (240 degrees) at 6 MPH (5 KT):0
Visibility: 10 mile(s):0
Sky conditions: clear
Temperature: 60.1 F (15.6 C)
Dew Point: 54.0 F (12.2 C)
Relative Humidity: 80%
Pressure (altimeter): 29.72 in. Hg (1006 hPa)
Pressure tendency: 0.00 inches (0.1 hPa) higher than three hours ago
ob: KMMV 200253Z AUTO 24005KT 10SM CLR 16/12 A2972 RMK AO2 SLP064 T01560122 53001 
cycle: 3
SALEM MCNARY FIELD, OR, United States (KSLE) 44-54N 123-00W 59M
Oct 19, 2014 - 10:56 PM EDT / 2014.10.20 0256 UTC
Wind: from the W (270 degrees) at 5 MPH (4 KT):0
Visibility: 10 mile(s):0
Sky conditions: clear
Temperature: 64.9 F (18.3 C)
Dew Point: 55.0 F (12.8 C)
Relative Humidity: 70%
Pressure (altimeter): 29.71 in. Hg (1006 hPa)
Pressure tendency: 0.01 inches (0.2 hPa) higher than three hours ago
ob: KSLE 200256Z 27004KT 10SM CLR 18/13 A2971 RMK AO2 SLP060 T01830128 53002
cycle: 3


Sunset at:
6:20 pm

Moonrise at:
3:19 am 10/19/14

Moonset at:
4:17 pm 10/19/14

First Quarter  1 October 2014
Full moon  8 October 2014
Last Quarter15 October 2014
New moon 23 October 2014
Moon age: 25 days,6 hours,37 minutes,19%
Hours of possible daylight today was 10:48



Use the RELOAD facility on your browser to retrieve the latest data.

Click here for current Fire weather info
Click here for the daily CLIMATOLOGICAL SUMMARY
Click here for a daily update of the averages/extremes to date for the month




Created by "Weather Display" software version 10.37R Build 81 at this start time/date 5:19 pm 9/1/2014




On The Greenway Weather Web Site

 
 
HELP US OUT
Help us keep this weather station on the web. for the Tigard / Portland internet users to use. If you would like to help, click the donate button below
 
This site is purely funded by donations and by myself (Ray Cooper)
Anything you can do will help keep this station on the net
Average cost per year is $665 to publish and host this site excluding the cost of the weather equipment
Buyastrostuff.com is kind enough to host our DNS and email at no cost.
THANKS GUYS & Gals for helping
Have a Question,or just want to talk. Contact me at:
Ray Cooper @ Buyastrostuff.com